createdAt,value
2018-09-29T00:01:18.017Z,4.67
2018-09-29T00:03:47.244Z,5.07
2018-09-29T00:06:16.431Z,5.17
2018-09-29T00:08:46.762Z,5.37
2018-09-29T00:11:16.043Z,5.00
2018-09-29T00:13:45.407Z,4.63
2018-09-29T00:16:14.602Z,4.67
2018-09-29T00:18:43.746Z,4.60
2018-09-29T00:21:13.250Z,5.27
2018-09-29T00:23:42.549Z,4.13
2018-09-29T00:26:11.866Z,4.17
2018-09-29T00:28:41.204Z,4.23
2018-09-29T00:31:10.353Z,5.17
2018-09-29T00:33:39.623Z,4.90
2018-09-29T00:36:08.905Z,4.60
2018-09-29T00:38:38.125Z,5.17
2018-09-29T00:41:07.346Z,4.90
2018-09-29T00:43:36.537Z,5.27
2018-09-29T00:46:05.725Z,4.50
2018-09-29T00:48:34.920Z,4.50
2018-09-29T00:51:04.278Z,4.10
2018-09-29T00:53:33.566Z,4.70
2018-09-29T00:56:02.757Z,4.93
2018-09-29T00:58:32.115Z,5.20
2018-09-29T01:01:01.431Z,6.10
2018-09-29T01:03:30.721Z,6.40
2018-09-29T01:05:59.870Z,5.43
2018-09-29T01:08:29.002Z,5.27
2018-09-29T01:10:58.313Z,4.07
2018-09-29T01:13:27.892Z,4.40
2018-09-29T01:15:57.134Z,4.27
2018-09-29T01:18:26.233Z,10.10
2018-09-29T01:20:55.718Z,10.00
2018-09-29T01:23:24.970Z,9.17
2018-09-29T01:25:54.336Z,14.17
2018-09-29T01:28:23.671Z,10.83
2018-09-29T01:30:52.833Z,12.50
2018-09-29T01:33:22.061Z,17.17
2018-09-29T01:35:51.648Z,19.27
2018-09-29T01:38:20.811Z,20.77
2018-09-29T01:40:50.161Z,21.77
2018-09-29T01:43:19.514Z,20.33
2018-09-29T01:45:48.757Z,19.47
2018-09-29T01:48:17.818Z,16.53
2018-09-29T01:50:47.222Z,13.37
2018-09-29T01:53:16.431Z,10.03
2018-09-29T01:55:45.746Z,7.10
2018-09-29T01:58:15.258Z,7.63
2018-09-29T02:00:44.333Z,5.23
2018-09-29T02:03:13.714Z,5.67
2018-09-29T02:05:43.686Z,4.73
2018-09-29T02:08:12.874Z,5.23
2018-09-29T02:10:42.069Z,14.20
2018-09-29T02:13:11.314Z,14.37
2018-09-29T02:15:40.449Z,12.43
2018-09-29T02:18:09.548Z,12.70
2018-09-29T02:20:38.887Z,11.47
2018-09-29T02:23:08.121Z,11.73
2018-09-29T02:25:37.318Z,10.67
2018-09-29T02:28:06.694Z,10.67
2018-09-29T02:30:35.938Z,8.73
2018-09-29T02:33:05.138Z,8.60
2018-09-29T02:35:34.373Z,8.30
2018-09-29T02:38:03.400Z,8.83
2018-09-29T02:40:32.917Z,8.07
2018-09-29T02:43:02.439Z,7.77
2018-09-29T02:45:31.726Z,8.50
2018-09-29T02:48:01.026Z,7.97
2018-09-29T02:50:30.545Z,7.50
2018-09-29T02:52:59.661Z,6.57
2018-09-29T02:55:28.769Z,7.53
2018-09-29T02:57:58.170Z,7.23
2018-09-29T03:00:27.342Z,7.87
2018-09-29T03:02:56.523Z,8.63
2018-09-29T03:05:25.869Z,7.27
2018-09-29T03:07:55.037Z,5.93
2018-09-29T03:10:24.143Z,5.77
2018-09-29T03:12:53.385Z,6.23
2018-09-29T03:15:22.517Z,12.40
2018-09-29T03:17:51.789Z,8.23
2018-09-29T03:20:21.323Z,9.03
2018-09-29T03:22:50.925Z,10.03
2018-09-29T03:25:20.153Z,7.00
2018-09-29T03:27:49.395Z,7.47
2018-09-29T03:30:18.625Z,5.90
2018-09-29T03:32:47.811Z,5.97
2018-09-29T03:35:17.088Z,6.10
2018-09-29T03:37:46.421Z,6.80
2018-09-29T03:40:15.713Z,5.83
2018-09-29T03:42:45.291Z,5.53
2018-09-29T03:45:14.426Z,5.43
2018-09-29T03:47:43.624Z,6.03
2018-09-29T03:50:12.977Z,5.47
2018-09-29T03:52:42.223Z,5.83
2018-09-29T03:55:11.505Z,5.23
2018-09-29T03:57:40.869Z,5.17
2018-09-29T04:00:10.114Z,6.07
2018-09-29T04:02:39.239Z,4.93
2018-09-29T04:05:08.597Z,6.73
2018-09-29T04:07:37.736Z,6.00
2018-09-29T04:10:07.309Z,5.97
2018-09-29T04:12:36.681Z,7.43
2018-09-29T04:15:06.046Z,11.20
2018-09-29T04:17:35.124Z,11.47
2018-09-29T04:20:04.528Z,9.60
2018-09-29T04:22:33.806Z,7.80
2018-09-29T04:25:03.157Z,7.80
2018-09-29T04:27:32.683Z,8.93
2018-09-29T04:30:01.820Z,7.60
2018-09-29T04:32:31.029Z,8.80
2018-09-29T04:35:00.371Z,8.67
2018-09-29T04:37:29.527Z,7.37
2018-09-29T04:39:58.589Z,7.37
2018-09-29T04:42:28.277Z,9.13
2018-09-29T04:44:57.507Z,7.83
2018-09-29T04:47:26.813Z,18.67
2018-09-29T04:49:56.178Z,14.67
2018-09-29T04:52:25.331Z,15.30
2018-09-29T04:54:54.324Z,12.80
2018-09-29T04:57:23.613Z,15.63
2018-09-29T04:59:52.717Z,14.93
2018-09-29T05:02:21.820Z,17.23
2018-09-29T05:04:51.301Z,22.90
2018-09-29T05:07:20.601Z,21.20
2018-09-29T05:09:49.916Z,18.00
2018-09-29T05:12:19.350Z,18.93
2018-09-29T05:14:48.505Z,13.70
2018-09-29T05:17:17.593Z,10.90
2018-09-29T05:19:46.953Z,9.23
2018-09-29T05:22:16.210Z,8.87
2018-09-29T05:24:45.496Z,7.97
2018-09-29T05:27:15.056Z,8.03
2018-09-29T05:29:44.229Z,8.00
2018-09-29T05:32:13.392Z,8.03
2018-09-29T05:34:42.873Z,7.87
2018-09-29T05:37:12.274Z,8.80
2018-09-29T05:39:41.499Z,11.47
2018-09-29T05:42:11.190Z,19.60
2018-09-29T05:44:40.429Z,15.53
2018-09-29T05:47:09.613Z,7.53
2018-09-29T05:49:38.929Z,8.23
2018-09-29T05:52:08.277Z,6.57
2018-09-29T05:54:37.514Z,5.73
2018-09-29T05:57:07.198Z,5.90
2018-09-29T05:59:36.317Z,6.93
2018-09-29T06:02:05.582Z,6.17
2018-09-29T06:04:34.899Z,8.47
2018-09-29T06:07:04.173Z,6.83
2018-09-29T06:09:33.862Z,9.27
2018-09-29T06:12:03.106Z,5.80
2018-09-29T06:14:32.341Z,7.00
2018-09-29T06:17:01.754Z,7.27
2018-09-29T06:19:31.100Z,7.07
2018-09-29T06:22:00.409Z,7.27
2018-09-29T06:24:29.645Z,6.67
2018-09-29T06:26:59.006Z,7.27
2018-09-29T06:29:28.229Z,7.57
2018-09-29T06:31:57.673Z,9.07
2018-09-29T06:34:26.810Z,8.30
2018-09-29T06:36:56.128Z,9.93
2018-09-29T06:39:25.921Z,10.90
2018-09-29T06:41:55.102Z,11.53
2018-09-29T06:44:24.626Z,13.30
2018-09-29T06:46:53.872Z,12.40
2018-09-29T06:49:23.042Z,10.47
2018-09-29T06:51:52.311Z,10.07
2018-09-29T06:54:21.910Z,10.57
2018-09-29T06:56:51.239Z,8.93
2018-09-29T06:59:24.554Z,9.77
2018-09-29T07:01:53.905Z,9.67
2018-09-29T07:04:23.007Z,9.27
2018-09-29T07:06:52.466Z,11.20
2018-09-29T07:09:21.649Z,10.83
2018-09-29T07:11:50.819Z,12.10
2018-09-29T07:14:20.086Z,11.17
2018-09-29T07:16:49.297Z,11.77
2018-09-29T07:19:18.605Z,14.70
2018-09-29T07:21:47.991Z,14.13
2018-09-29T07:24:17.431Z,24.80
2018-09-29T07:26:46.617Z,18.13
2018-09-29T07:29:16.117Z,14.27
2018-09-29T07:31:45.215Z,13.07
2018-09-29T07:34:14.307Z,13.73
2018-09-29T07:36:43.460Z,12.00
2018-09-29T07:39:12.689Z,9.57
2018-09-29T07:41:42.010Z,10.27
2018-09-29T07:44:11.637Z,7.93
2018-09-29T07:46:41.535Z,9.53
2018-09-29T07:49:10.734Z,9.57
2018-09-29T07:51:40.164Z,8.83
2018-09-29T07:54:09.318Z,9.10
2018-09-29T07:56:38.421Z,12.47
2018-09-29T07:59:07.755Z,13.67
2018-09-29T08:01:37.115Z,11.43
2018-09-29T08:04:06.601Z,11.00
2018-09-29T08:06:36.057Z,9.73
2018-09-29T08:09:06.433Z,11.00
2018-09-29T08:11:35.688Z,10.03
2018-09-29T08:14:05.209Z,10.33
2018-09-29T08:16:36.133Z,11.30
2018-09-29T08:19:05.581Z,8.50
2018-09-29T08:21:34.817Z,6.83
2018-09-29T08:24:05.745Z,8.53
2018-09-29T08:26:35.061Z,7.47
2018-09-29T08:29:04.217Z,9.13
2018-09-29T08:31:33.565Z,8.13
2018-09-29T08:34:02.777Z,8.33
2018-09-29T08:36:31.970Z,9.13
2018-09-29T08:39:01.533Z,8.17
2018-09-29T08:41:30.783Z,8.57
2018-09-29T08:43:59.970Z,8.87
2018-09-29T08:46:29.218Z,7.57
2018-09-29T08:48:58.369Z,8.80
2018-09-29T08:51:27.465Z,8.77
2018-09-29T08:53:56.710Z,8.13
2018-09-29T08:56:26.049Z,8.57
2018-09-29T08:58:55.354Z,9.13
2018-09-29T09:01:24.965Z,17.03
2018-09-29T09:03:54.257Z,8.93
2018-09-29T09:06:23.671Z,7.40
2018-09-29T09:08:53.181Z,10.27
2018-09-29T09:11:22.465Z,9.20
2018-09-29T09:13:51.674Z,8.17
2018-09-29T09:16:20.978Z,9.87
2018-09-29T09:18:50.065Z,8.67
2018-09-29T09:21:19.258Z,10.90
2018-09-29T09:23:48.556Z,11.93
2018-09-29T09:26:18.689Z,8.73
2018-09-29T09:28:47.806Z,8.97
2018-09-29T09:31:17.056Z,8.70
2018-09-29T09:33:46.361Z,14.30
2018-09-29T09:36:15.591Z,13.43
2018-09-29T09:38:45.001Z,10.17
2018-09-29T09:41:14.305Z,12.57
2018-09-29T09:43:43.609Z,11.03
2018-09-29T09:46:13.293Z,9.33
2018-09-29T09:48:42.577Z,15.17
2018-09-29T09:51:11.798Z,11.33
2018-09-29T09:53:41.784Z,8.80
2018-09-29T09:56:11.258Z,8.30
2018-09-29T09:58:41.033Z,10.37
2018-09-29T10:01:15.117Z,13.57
2018-09-29T10:03:44.397Z,13.10
2018-09-29T10:06:13.733Z,8.73
2018-09-29T10:08:42.933Z,9.97
2018-09-29T10:11:12.308Z,16.77
2018-09-29T10:13:41.411Z,8.67
2018-09-29T10:16:10.549Z,8.87
2018-09-29T10:18:40.046Z,10.57
2018-09-29T10:21:09.314Z,9.03
2018-09-29T10:23:38.623Z,9.40
2018-09-29T10:26:08.222Z,11.37
2018-09-29T10:28:37.437Z,16.77
2018-09-29T10:31:06.629Z,10.37
2018-09-29T10:33:35.997Z,8.87
2018-09-29T10:36:05.221Z,9.70
2018-09-29T10:38:34.461Z,11.37
2018-09-29T10:41:03.580Z,10.43
2018-09-29T10:43:32.826Z,9.60
2018-09-29T10:46:02.029Z,9.93
2018-09-29T10:48:31.604Z,9.37
2018-09-29T10:51:00.831Z,13.37
2018-09-29T10:53:30.037Z,10.07
2018-09-29T10:55:59.631Z,9.10
2018-09-29T10:58:28.842Z,9.23
2018-09-29T11:00:58.029Z,20.97
2018-09-29T11:03:27.348Z,8.83
2018-09-29T11:05:56.541Z,7.47
2018-09-29T11:08:25.805Z,6.63
2018-09-29T11:10:55.501Z,7.10
2018-09-29T11:13:24.723Z,9.00
2018-09-29T11:15:53.953Z,6.00
2018-09-29T11:18:23.215Z,5.97
2018-09-29T11:20:52.439Z,7.23
2018-09-29T11:23:21.822Z,9.60
2018-09-29T11:25:51.347Z,17.53
2018-09-29T11:28:20.633Z,6.90
2018-09-29T11:30:50.285Z,7.10
2018-09-29T11:33:19.981Z,9.70
2018-09-29T11:35:49.235Z,9.80
2018-09-29T11:38:18.588Z,8.73
2018-09-29T11:40:47.906Z,8.27
2018-09-29T11:43:17.113Z,7.43
2018-09-29T11:45:46.269Z,9.13
2018-09-29T11:48:15.964Z,8.40
2018-09-29T11:50:45.185Z,8.27
2018-09-29T11:53:14.450Z,10.90
2018-09-29T11:55:43.731Z,9.37
2018-09-29T11:58:12.870Z,7.17
2018-09-29T12:00:41.973Z,8.53
2018-09-29T12:03:11.297Z,8.53
2018-09-29T12:05:40.486Z,8.13
2018-09-29T12:08:09.837Z,11.50
2018-09-29T12:10:38.999Z,8.13
2018-09-29T12:13:08.357Z,7.70
2018-09-29T12:15:37.456Z,8.33
2018-09-29T12:18:08.378Z,8.70
2018-09-29T12:20:37.473Z,10.60
2018-09-29T12:23:06.772Z,10.33
2018-09-29T12:25:36.837Z,10.33
2018-09-29T12:28:06.051Z,8.60
2018-09-29T12:30:35.158Z,9.27
2018-09-29T12:33:04.673Z,10.03
2018-09-29T12:35:33.965Z,14.53
2018-09-29T12:38:03.302Z,9.37
2018-09-29T12:40:32.747Z,11.37
2018-09-29T12:43:02.037Z,8.77
2018-09-29T12:45:31.287Z,9.27
2018-09-29T12:48:00.517Z,9.47
2018-09-29T12:50:29.750Z,7.77
2018-09-29T12:52:58.853Z,7.87
2018-09-29T12:55:28.193Z,9.07
2018-09-29T12:57:57.527Z,8.30
2018-09-29T13:00:26.736Z,7.83
2018-09-29T13:02:56.406Z,8.23
2018-09-29T13:05:25.674Z,9.60
2018-09-29T13:07:54.973Z,9.33
2018-09-29T13:10:24.434Z,8.80
2018-09-29T13:12:53.612Z,6.50
2018-09-29T13:15:22.801Z,6.77
2018-09-29T13:17:52.129Z,11.93
2018-09-29T13:20:21.250Z,7.97
2018-09-29T13:22:50.374Z,8.43
2018-09-29T13:25:19.814Z,8.57
2018-09-29T13:27:49.137Z,7.93
2018-09-29T13:30:18.426Z,8.07
2018-09-29T13:32:50.236Z,7.80
2018-09-29T13:35:19.513Z,7.93
2018-09-29T13:37:48.648Z,7.10
2018-09-29T13:40:19.133Z,7.40
2018-09-29T13:42:49.034Z,8.47
2018-09-29T13:45:18.226Z,8.33
2018-09-29T13:47:47.415Z,7.83
2018-09-29T13:50:16.793Z,7.07
2018-09-29T13:52:46.168Z,6.67
2018-09-29T13:55:15.444Z,7.70
2018-09-29T13:57:44.825Z,7.13
2018-09-29T14:00:14.151Z,6.10
2018-09-29T14:02:43.349Z,6.07
2018-09-29T14:05:12.590Z,6.53
2018-09-29T14:07:41.934Z,14.90
2018-09-29T14:10:11.352Z,7.77
2018-09-29T14:12:40.942Z,9.33
2018-09-29T14:15:10.115Z,7.77
2018-09-29T14:17:40.007Z,7.27
2018-09-29T14:20:09.333Z,6.87
2018-09-29T14:22:38.562Z,8.00
2018-09-29T14:25:07.673Z,7.77
2018-09-29T14:27:36.946Z,7.70
2018-09-29T14:30:06.454Z,8.40
2018-09-29T14:32:35.794Z,9.30
2018-09-29T14:35:05.743Z,7.87
2018-09-29T14:37:35.122Z,7.40
2018-09-29T14:40:05.261Z,7.30
2018-09-29T14:42:34.789Z,5.97
2018-09-29T14:45:04.656Z,10.03
2018-09-29T14:47:34.145Z,7.17
2018-09-29T14:50:03.761Z,5.77
2018-09-29T14:52:33.030Z,6.17
2018-09-29T14:55:02.150Z,10.73
2018-09-29T14:57:31.513Z,5.53
2018-09-29T15:00:00.820Z,5.30
2018-09-29T15:02:30.046Z,8.63
2018-09-29T15:05:07.310Z,8.00
2018-09-29T15:07:37.432Z,7.17
2018-09-29T15:10:06.730Z,7.60
2018-09-29T15:12:35.841Z,7.20
2018-09-29T15:15:05.113Z,11.10
2018-09-29T15:17:34.305Z,10.27
2018-09-29T15:20:03.728Z,6.43
2018-09-29T15:22:32.861Z,6.97
2018-09-29T15:25:02.339Z,6.57
2018-09-29T15:27:31.689Z,6.63
2018-09-29T15:30:01.046Z,7.03
2018-09-29T15:32:31.232Z,6.93
2018-09-29T15:35:00.433Z,6.93
2018-09-29T15:37:29.898Z,6.73
2018-09-29T15:39:59.294Z,9.43
2018-09-29T15:42:28.422Z,8.47
2018-09-29T15:44:58.079Z,7.77
2018-09-29T15:47:27.528Z,8.80
2018-09-29T15:49:56.830Z,9.33
2018-09-29T15:52:26.565Z,9.53
2018-09-29T15:54:55.873Z,10.10
2018-09-29T15:57:25.137Z,9.60
2018-09-29T15:59:54.635Z,11.03
2018-09-29T16:02:24.251Z,12.40
2018-09-29T16:04:53.738Z,14.57
2018-09-29T16:07:23.105Z,13.23
2018-09-29T16:09:52.167Z,13.47
2018-09-29T16:12:21.458Z,15.10
2018-09-29T16:14:51.700Z,13.27
2018-09-29T16:17:20.980Z,17.43
2018-09-29T16:19:50.185Z,20.47
2018-09-29T16:22:19.790Z,39.73
2018-09-29T16:24:49.091Z,23.40
2018-09-29T16:27:18.594Z,14.80
2018-09-29T16:29:47.939Z,14.70
2018-09-29T16:32:17.185Z,15.77
2018-09-29T16:34:46.381Z,14.87
2018-09-29T16:37:15.961Z,16.07
2018-09-29T16:39:45.166Z,14.60
2018-09-29T16:42:14.298Z,14.13
2018-09-29T16:44:43.690Z,14.30
2018-09-29T16:47:12.965Z,14.10
2018-09-29T16:49:42.201Z,14.63
2018-09-29T16:52:11.664Z,12.77
2018-09-29T16:54:41.472Z,10.73
2018-09-29T16:57:10.792Z,11.17
2018-09-29T16:59:40.229Z,10.03
2018-09-29T17:02:09.399Z,9.40
2018-09-29T17:04:38.589Z,9.60
2018-09-29T17:07:08.053Z,8.90
2018-09-29T17:09:37.477Z,9.73
2018-09-29T17:12:07.321Z,9.77
2018-09-29T17:14:36.901Z,9.87
2018-09-29T17:17:06.966Z,10.73
2018-09-29T17:19:36.309Z,10.67
2018-09-29T17:22:05.792Z,10.13
2018-09-29T17:24:34.962Z,9.57
2018-09-29T17:27:04.169Z,11.70
2018-09-29T17:29:33.648Z,10.30
2018-09-29T17:32:02.784Z,7.97
2018-09-29T17:34:32.061Z,7.63
2018-09-29T17:37:01.365Z,6.93
2018-09-29T17:39:30.729Z,8.00
2018-09-29T17:42:00.088Z,8.37
2018-09-29T17:44:29.616Z,7.07
2018-09-29T17:46:58.754Z,8.10
2018-09-29T17:49:28.034Z,5.93
2018-09-29T17:51:57.345Z,6.43
2018-09-29T17:54:26.725Z,5.63
2018-09-29T17:56:55.998Z,6.40
2018-09-29T17:59:25.462Z,7.23
2018-09-29T18:01:54.914Z,7.03
2018-09-29T18:04:24.280Z,7.07
2018-09-29T18:06:53.677Z,9.33
2018-09-29T18:09:22.922Z,8.63
2018-09-29T18:11:52.110Z,9.53
2018-09-29T18:14:21.609Z,9.87
2018-09-29T18:16:50.881Z,9.30
2018-09-29T18:19:20.063Z,9.27
2018-09-29T18:21:49.582Z,9.97
2018-09-29T18:24:18.830Z,9.50
2018-09-29T18:26:47.932Z,10.70
2018-09-29T18:29:17.290Z,10.77
2018-09-29T18:31:46.540Z,10.57
2018-09-29T18:34:15.669Z,11.03
2018-09-29T18:36:46.007Z,12.33
2018-09-29T18:39:15.175Z,13.23
2018-09-29T18:41:44.376Z,13.57
2018-09-29T18:44:14.154Z,14.33
2018-09-29T18:46:43.429Z,12.03
2018-09-29T18:49:12.730Z,11.53
2018-09-29T18:51:42.141Z,13.13
2018-09-29T18:54:11.705Z,11.30
2018-09-29T18:56:41.150Z,11.90
2018-09-29T18:59:10.712Z,11.50
2018-09-29T19:01:39.970Z,10.57
2018-09-29T19:04:09.163Z,7.80
2018-09-29T19:06:38.426Z,6.30
2018-09-29T19:09:09.754Z,5.83
2018-09-29T19:11:39.269Z,6.63
2018-09-29T19:14:08.509Z,6.77
2018-09-29T19:16:37.653Z,7.77
2018-09-29T19:19:07.159Z,9.67
2018-09-29T19:21:36.526Z,9.87
2018-09-29T19:24:05.813Z,9.03
2018-09-29T19:26:35.067Z,9.90
2018-09-29T19:29:04.488Z,9.10
2018-09-29T19:31:33.609Z,9.00
2018-09-29T19:34:02.805Z,9.00
2018-09-29T19:36:31.910Z,10.37
2018-09-29T19:39:01.093Z,9.53
2018-09-29T19:41:30.506Z,11.93
2018-09-29T19:43:59.699Z,10.73
2018-09-29T19:46:28.990Z,12.33
2018-09-29T19:48:58.287Z,15.30
2018-09-29T19:51:27.546Z,17.77
2018-09-29T19:53:56.818Z,18.13
2018-09-29T19:56:26.063Z,18.33
2018-09-29T19:58:55.221Z,18.37
2018-09-29T20:01:24.273Z,16.73
2018-09-29T20:03:53.903Z,13.80
2018-09-29T20:06:23.092Z,11.63
2018-09-29T20:08:52.297Z,11.40
2018-09-29T20:11:21.787Z,12.27
2018-09-29T20:13:50.930Z,13.00
2018-09-29T20:16:20.090Z,11.63
2018-09-29T20:18:49.252Z,10.60
2018-09-29T20:21:19.417Z,9.07
2018-09-29T20:23:48.501Z,9.37
2018-09-29T20:26:17.757Z,8.30
2018-09-29T20:28:47.007Z,8.63
2018-09-29T20:31:16.189Z,8.83
2018-09-29T20:33:45.367Z,8.87
2018-09-29T20:36:14.705Z,8.17
2018-09-29T20:38:43.994Z,8.60
2018-09-29T20:41:13.571Z,8.13
2018-09-29T20:43:42.825Z,9.43
2018-09-29T20:46:11.769Z,9.00
2018-09-29T20:48:41.166Z,9.60
2018-09-29T20:51:10.318Z,9.17
2018-09-29T20:53:39.402Z,9.57
2018-09-29T20:56:08.797Z,8.80
2018-09-29T20:58:38.081Z,9.30
2018-09-29T21:01:07.649Z,9.30
2018-09-29T21:03:37.086Z,9.07
2018-09-29T21:06:06.313Z,8.70
2018-09-29T21:08:35.394Z,8.93
2018-09-29T21:11:04.803Z,8.80
2018-09-29T21:13:34.139Z,8.87
2018-09-29T21:16:03.490Z,8.23
2018-09-29T21:18:33.098Z,8.67
2018-09-29T21:21:02.453Z,8.17
2018-09-29T21:23:32.098Z,10.03
2018-09-29T21:26:02.506Z,13.00
2018-09-29T21:28:32.093Z,12.17
2018-09-29T21:31:01.223Z,16.33
2018-09-29T21:33:30.587Z,13.23
2018-09-29T21:35:59.841Z,9.27
2018-09-29T21:38:29.057Z,8.57
2018-09-29T21:40:58.553Z,9.63
2018-09-29T21:43:27.730Z,7.70
2018-09-29T21:45:56.980Z,9.20
2018-09-29T21:48:26.487Z,9.50
2018-09-29T21:50:55.765Z,9.47
2018-09-29T21:53:24.840Z,8.97
2018-09-29T21:55:54.096Z,8.20
2018-09-29T21:58:23.445Z,7.50
2018-09-29T22:00:52.733Z,8.40
2018-09-29T22:03:22.270Z,7.57
2018-09-29T22:05:51.545Z,7.43
2018-09-29T22:08:20.643Z,6.53
2018-09-29T22:10:50.003Z,7.07
2018-09-29T22:13:19.235Z,7.13
2018-09-29T22:15:48.344Z,7.93
2018-09-29T22:18:18.572Z,8.07
2018-09-29T22:20:47.657Z,8.10
2018-09-29T22:23:16.770Z,8.33
2018-09-29T22:25:46.043Z,9.10
2018-09-29T22:28:15.332Z,8.60
2018-09-29T22:30:44.633Z,8.40
2018-09-29T22:33:14.212Z,8.97
2018-09-29T22:35:43.486Z,8.67
2018-09-29T22:38:12.561Z,8.70
2018-09-29T22:40:42.153Z,8.23
2018-09-29T22:43:11.465Z,9.13
2018-09-29T22:45:40.785Z,8.57
2018-09-29T22:48:10.140Z,8.70
2018-09-29T22:50:39.617Z,8.37
2018-09-29T22:53:09.017Z,9.13
2018-09-29T22:55:38.499Z,9.20
2018-09-29T22:58:07.934Z,8.67
2018-09-29T23:00:37.079Z,8.80
2018-09-29T23:03:06.450Z,8.37
2018-09-29T23:05:35.574Z,8.33
2018-09-29T23:08:04.673Z,8.43
2018-09-29T23:10:33.997Z,8.13
2018-09-29T23:13:03.349Z,8.73
2018-09-29T23:15:32.657Z,8.27
2018-09-29T23:18:02.111Z,8.60
2018-09-29T23:20:31.268Z,8.50
2018-09-29T23:23:00.281Z,10.57
2018-09-29T23:25:29.765Z,8.30
2018-09-29T23:27:59.046Z,8.27
2018-09-29T23:30:28.275Z,8.67
2018-09-29T23:32:57.677Z,9.90
2018-09-29T23:35:26.862Z,9.53
2018-09-29T23:37:56.053Z,9.17
2018-09-29T23:40:25.517Z,9.27
2018-09-29T23:42:54.765Z,10.70
2018-09-29T23:45:23.834Z,10.57
2018-09-29T23:47:53.388Z,10.40
2018-09-29T23:50:22.785Z,10.30
2018-09-29T23:52:51.881Z,9.83
2018-09-29T23:55:21.221Z,8.53
2018-09-29T23:57:50.454Z,8.90
